Time;durP1;ratioP1;P1;durP2;ratioP2;P2;SDS_P1;SDS_P2;PMS_P1;PMS_P2;Temp;Humidity;BMP_temperature;BMP_pressure;BME280_temperature;BME280_humidity;BME280_pressure;Samples;Min_cycle;Max_cycle;Signal;HPM_P1;HPM_P2
2023/08/08 00:01:03;;;;;;;;;;;;;;;;;;5079104;28;20127;-62
2023/08/08 00:03:29;;;;;;;5.18;2.30;;;;;;;;;;5078129;28;19986;-60
2023/08/08 00:05:55;;;;;;;;;;;;;;;;;;5073260;28;20492;-61
2023/08/08 00:08:21;;;;;;;7.77;3.17;;;;;;;;;;5068442;28;19921;-60
2023/08/08 00:10:47;;;;;;;;;;;;;;;;;;5079125;28;20411;-61
2023/08/08 00:13:14;;;;;;;5.07;2.43;;;;;;;;;;5070176;28;20045;-60
2023/08/08 00:15:40;;;;;;;;;;;;;;;;;;5067593;28;20405;-60
2023/08/08 00:18:06;;;;;;;7.35;2.13;;;;;;;;;;5078690;28;19930;-61
2023/08/08 00:20:32;;;;;;;5.55;2.47;;;;;;;;;;5063308;28;20068;-61
2023/08/08 00:22:58;;;;;;;;;;;;;;;;;;5066253;28;20121;-61
2023/08/08 00:25:24;;;;;;;5.63;2.47;;;;;;;;;;5058577;28;19971;-62
2023/08/08 00:27:50;;;;;;;;;;;;;;;;;;5063431;28;20123;-59
2023/08/08 00:30:16;;;;;;;3.25;2.05;;;;;;;;;;5063551;28;20382;-61
2023/08/08 00:32:42;;;;;;;6.03;2.08;;;;;;;;;;5061695;28;20175;-61
2023/08/08 00:35:08;;;;;;;5.28;2.50;;;;;;;;;;5061378;28;20047;-61
2023/08/08 00:37:34;;;;;;;4.68;2.38;;;;;;;;;;5063408;28;20036;-61
2023/08/08 00:40:00;;;;;;;;;;;;;;;;;;5060214;28;20698;-64
2023/08/08 00:42:26;;;;;;;8.57;1.85;;;;;;;;;;5062316;28;19921;-62
2023/08/08 00:44:52;;;;;;;4.00;2.22;;;;;;;;;;5062557;28;20039;-60
2023/08/08 00:47:19;;;;;;;8.20;2.00;;;;;;;;;;5066767;28;20040;-61
2023/08/08 00:49:46;;;;;;;3.20;1.90;;;;;;;;;;5064302;28;20040;-63
2023/08/08 00:52:12;;;;;;;7.63;2.08;;;;;;;;;;5072119;28;20036;-62
2023/08/08 00:54:38;;;;;;;11.75;2.53;;;;;;;;;;5076347;28;20526;-62
2023/08/08 00:57:04;;;;;;;;;;;;;;;;;;5071353;28;20484;-62
2023/08/08 00:59:30;;;;;;;9.63;2.08;;;;;;;;;;5059730;28;20612;-62
2023/08/08 01:01:57;;;;;;;6.57;2.15;;;;;;;;;;5063439;28;20123;-61
2023/08/08 01:04:26;;;;;;;5.82;1.80;;;;;;;;;;5061857;28;20177;-61
2023/08/08 01:07:12;;;;;;;5.95;2.28;;;;;;;;;;5059457;28;20044;-63
2023/08/08 01:09:55;;;;;;;7.10;2.22;;;;;;;;;;5046593;28;20041;-61
2023/08/08 01:12:23;;;;;;;4.75;2.47;;;;;;;;;;5064168;28;20040;-61
2023/08/08 01:14:48;;;;;;;4.00;2.22;;;;;;;;;;5061623;28;20065;-62
2023/08/08 01:17:14;;;;;;;;;;;;;;;;;;5055668;28;20063;-61
2023/08/08 01:19:41;;;;;;;4.03;1.90;;;;;;;;;;5063792;28;19924;-63
2023/08/08 01:22:20;;;;;;;5.30;1.98;;;;;;;;;;5061127;28;20048;-62
2023/08/08 01:24:46;;;;;;;7.88;2.53;;;;;;;;;;5061964;28;20543;-62
2023/08/08 01:27:12;;;;;;;2.45;2.05;;;;;;;;;;5063811;28;20048;-61
2023/08/08 01:29:39;;;;;;;;;;;;;;;;;;5062344;28;20097;-62
2023/08/08 01:32:05;;;;;;;4.88;2.03;;;;;;;;;;5063409;28;20018;-62
2023/08/08 01:34:31;;;;;;;5.88;2.10;;;;;;;;;;5062732;28;20033;-62
2023/08/08 01:37:00;;;;;;;5.10;1.83;;;;;;;;;;5057770;28;20661;-61
2023/08/08 01:39:27;;;;;;;2.42;1.65;;;;;;;;;;5042052;28;20051;-62
2023/08/08 01:41:54;;;;;;;3.38;1.92;;;;;;;;;;5054974;28;20048;-62
2023/08/08 01:44:23;;;;;;;2.92;1.80;;;;;;;;;;5065704;28;20373;-60
2023/08/08 01:46:49;;;;;;;7.20;3.00;;;;;;;;;;5072230;28;20044;-61
2023/08/08 01:49:15;;;;;;;;;;;;;;;;;;5069880;28;20583;-61
2023/08/08 01:51:41;;;;;;;5.72;2.30;;;;;;;;;;5067098;28;19924;-61
2023/08/08 01:54:07;;;;;;;5.15;2.13;;;;;;;;;;5055349;28;20037;-61
2023/08/08 01:56:32;;;;;;;;;;;;;;;;;;5062444;28;20044;-61
2023/08/08 01:58:59;;;;;;;3.40;2.15;;;;;;;;;;5051025;28;19928;-61
2023/08/08 02:01:25;;;;;;;7.25;2.63;;;;;;;;;;5061389;28;20049;-62
2023/08/08 02:03:51;;;;;;;9.02;3.08;;;;;;;;;;5062924;28;20133;-61
2023/08/08 02:06:17;;;;;;;7.93;2.80;;;;;;;;;;5059171;28;20075;-61
2023/08/08 02:08:43;;;;;;;;;;;;;;;;;;5049072;28;20045;-62
2023/08/08 02:11:09;;;;;;;5.65;3.30;;;;;;;;;;5043928;28;19927;-63
2023/08/08 02:13:35;;;;;;;;;;;;;;;;;;5061766;28;20544;-63
2023/08/08 02:16:01;;;;;;;6.30;2.55;;;;;;;;;;5063448;28;20058;-61
2023/08/08 02:18:27;;;;;;;;;;;;;;;;;;5064276;28;20065;-61
2023/08/08 02:20:53;;;;;;;10.48;3.53;;;;;;;;;;5064044;28;19920;-62
2023/08/08 02:23:19;;;;;;;;;;;;;;;;;;5062672;28;20655;-62
2023/08/08 02:25:45;;;;;;;9.02;4.70;;;;;;;;;;5059157;28;19920;-61
2023/08/08 02:28:11;;;;;;;9.50;5.07;;;;;;;;;;5058666;28;20495;-61
2023/08/08 02:30:37;;;;;;;;;;;;;;;;;;5061000;28;20572;-63
2023/08/08 02:33:03;;;;;;;8.30;4.88;;;;;;;;;;5061143;28;19920;-61
2023/08/08 02:35:29;;;;;;;12.20;5.18;;;;;;;;;;5061738;28;20114;-62
2023/08/08 02:37:56;;;;;;;7.50;4.20;;;;;;;;;;5062121;28;20036;-62
2023/08/08 02:40:23;;;;;;;6.38;4.28;;;;;;;;;;5062838;28;20094;-61
2023/08/08 02:42:49;;;;;;;8.63;4.32;;;;;;;;;;5047949;28;20040;-63
2023/08/08 02:45:15;;;;;;;7.38;4.38;;;;;;;;;;5064750;28;20088;-63
2023/08/08 02:47:41;;;;;;;;;;;;;;;;;;5073554;28;20036;-63
2023/08/08 02:50:08;;;;;;;7.07;4.40;;;;;;;;;;5063355;28;19927;-63
2023/08/08 02:52:34;;;;;;;12.95;5.22;;;;;;;;;;5061328;28;20174;-60
2023/08/08 02:55:01;;;;;;;;;;;;;;;;;;5047439;28;20036;-61
2023/08/08 02:57:28;;;;;;;8.60;4.78;;;;;;;;;;5042935;28;20528;-61
2023/08/08 02:59:53;;;;;;;;;;;;;;;;;;5056285;28;20056;-61
2023/08/08 03:02:19;;;;;;;10.50;3.90;;;;;;;;;;5042452;28;19920;-62
2023/08/08 03:04:46;;;;;;;8.77;4.35;;;;;;;;;;5052772;28;20692;-61
2023/08/08 03:07:12;;;;;;;8.00;4.38;;;;;;;;;;5064107;28;20037;-59
2023/08/08 03:09:38;;;;;;;;;;;;;;;;;;5050173;28;20144;-60
2023/08/08 03:12:04;;;;;;;10.38;3.72;;;;;;;;;;5050383;28;20015;-61
2023/08/08 03:14:30;;;;;;;10.27;4.22;;;;;;;;;;5058779;28;20419;-59
2023/08/08 03:16:56;;;;;;;;;;;;;;;;;;5062312;28;20036;-61
2023/08/08 03:19:22;;;;;;;6.60;3.55;;;;;;;;;;5061265;28;19915;-61
2023/08/08 03:21:48;;;;;;;8.02;3.55;;;;;;;;;;5050032;28;20040;-59
2023/08/08 03:24:14;;;;;;;6.50;3.42;;;;;;;;;;5031573;28;20124;-61
2023/08/08 03:26:40;;;;;;;;;;;;;;;;;;5034527;28;20113;-58
2023/08/08 03:29:09;;;;;;;7.60;2.88;;;;;;;;;;5037737;28;20394;-61
2023/08/08 03:31:35;;;;;;;4.43;2.72;;;;;;;;;;5033064;28;20067;-61
2023/08/08 03:34:01;;;;;;;;;;;;;;;;;;5048394;28;20127;-60
2023/08/08 03:36:28;;;;;;;6.70;3.08;;;;;;;;;;5046021;28;19921;-61
2023/08/08 03:38:54;;;;;;;5.70;3.15;;;;;;;;;;5044428;28;20527;-60
2023/08/08 03:41:20;;;;;;;;;;;;;;;;;;5042516;28;20917;-60
2023/08/08 03:43:46;;;;;;;9.90;2.73;;;;;;;;;;5048542;28;20425;-61
2023/08/08 03:46:12;;;;;;;7.03;2.50;;;;;;;;;;5059966;28;20052;-62
2023/08/08 03:48:38;;;;;;;;;;;;;;;;;;5053000;28;20036;-62
2023/08/08 03:51:04;;;;;;;5.15;2.92;;;;;;;;;;5054700;28;19913;-63
2023/08/08 03:53:30;;;;;;;;;;;;;;;;;;5056400;28;20743;-62
2023/08/08 03:55:56;;;;;;;6.28;2.42;;;;;;;;;;5056727;28;19923;-61
2023/08/08 03:58:22;;;;;;;5.97;2.53;;;;;;;;;;5058776;28;20048;-61
2023/08/08 04:00:48;;;;;;;;;;;;;;;;;;5046070;28;20040;-62
2023/08/08 04:03:14;;;;;;;6.25;2.90;;;;;;;;;;5060184;28;20502;-63
2023/08/08 04:05:41;;;;;;;4.43;2.80;;;;;;;;;;5049474;28;20048;-62
2023/08/08 04:08:07;;;;;;;12.73;2.80;;;;;;;;;;5056482;28;20112;-61
2023/08/08 04:10:33;;;;;;;;;;;;;;;;;;5058120;28;20069;-61
2023/08/08 04:12:59;;;;;;;5.25;2.72;;;;;;;;;;5058977;28;20404;-61
2023/08/08 04:15:25;;;;;;;9.32;2.67;;;;;;;;;;5052317;28;20060;-63
2023/08/08 04:17:51;;;;;;;;;;;;;;;;;;5063059;28;20072;-63
2023/08/08 04:20:17;;;;;;;5.10;2.80;;;;;;;;;;5060267;28;19954;-61
2023/08/08 04:22:43;;;;;;;5.38;2.80;;;;;;;;;;5063697;28;20051;-61
2023/08/08 04:25:09;;;;;;;;;;;;;;;;;;5058150;28;20037;-62
2023/08/08 04:27:35;;;;;;;9.07;2.80;;;;;;;;;;5056056;28;19926;-63
2023/08/08 04:30:02;;;;;;;4.72;2.03;;;;;;;;;;5061907;28;20143;-62
2023/08/08 04:32:29;;;;;;;8.55;3.38;;;;;;;;;;5054911;28;20101;-63
2023/08/08 04:34:54;;;;;;;;;;;;;;;;;;5056052;28;20039;-61
2023/08/08 04:37:21;;;;;;;11.48;2.35;;;;;;;;;;5059323;28;19924;-61
2023/08/08 04:39:47;;;;;;;9.43;2.65;;;;;;;;;;5067289;28;20511;-61
2023/08/08 04:42:12;;;;;;;;;;;;;;;;;;5054693;28;20539;-61
2023/08/08 04:44:38;;;;;;;5.43;2.53;;;;;;;;;;5053294;28;19920;-62
2023/08/08 04:47:04;;;;;;;;;;;;;;;;;;5071911;28;20033;-62
2023/08/08 04:49:30;;;;;;;5.47;2.85;;;;;;;;;;5059647;28;19923;-62
2023/08/08 04:51:57;;;;;;;5.93;2.90;;;;;;;;;;5060883;28;20110;-62
2023/08/08 04:54:23;;;;;;;7.20;2.65;;;;;;;;;;5061808;28;20036;-60
2023/08/08 04:56:49;;;;;;;5.05;2.78;;;;;;;;;;5056013;28;20047;-61
2023/08/08 04:59:15;;;;;;;6.38;2.60;;;;;;;;;;5059333;28;20040;-61
2023/08/08 05:01:41;;;;;;;;;;;;;;;;;;5059738;28;20091;-62
2023/08/08 05:04:07;;;;;;;5.60;3.10;;;;;;;;;;5053519;28;20438;-61
2023/08/08 05:06:33;;;;;;;;;;;;;;;;;;5063240;28;20797;-61
2023/08/08 05:08:59;;;;;;;5.75;3.10;;;;;;;;;;5061574;28;19920;-62
2023/08/08 05:11:25;;;;;;;;;;;;;;;;;;5055897;28;20037;-62
2023/08/08 05:13:51;;;;;;;10.07;2.60;;;;;;;;;;5049019;28;19916;-63
2023/08/08 05:16:17;;;;;;;;;;;;;;;;;;5070176;28;20528;-65
2023/08/08 05:18:45;;;;;;;7.97;3.00;;;;;;;;;;5052247;28;19924;-63
2023/08/08 05:21:11;;;;;;;6.75;3.47;;;;;;;;;;5060843;28;20076;-62
2023/08/08 05:23:37;;;;;;;6.25;4.18;;;;;;;;;;5060333;28;20049;-62
2023/08/08 05:26:03;;;;;;;8.60;4.88;;;;;;;;;;5053803;28;20052;-63
2023/08/08 05:28:29;;;;;;;;;;;;;;;;;;5060793;28;20047;-63
2023/08/08 05:30:56;;;;;;;15.13;3.45;;;;;;;;;;5048407;28;19943;-64
2023/08/08 05:33:22;;;;;;;6.78;3.47;;;;;;;;;;5059412;28;20400;-62
2023/08/08 05:35:48;;;;;;;4.78;3.08;;;;;;;;;;5065956;28;20043;-62
2023/08/08 05:38:14;;;;;;;;;;;;;;;;;;5061882;28;20041;-62
2023/08/08 05:40:40;;;;;;;6.00;2.77;;;;;;;;;;5054954;28;20390;-63
2023/08/08 05:43:06;;;;;;;;;;;;;;;;;;5059890;28;20044;-62
2023/08/08 05:45:32;;;;;;;3.92;2.92;;;;;;;;;;5070669;28;19935;-63
2023/08/08 05:48:00;;;;;;;5.15;2.95;;;;;;;;;;5058903;28;20455;-64
2023/08/08 05:50:27;;;;;;;5.72;2.97;;;;;;;;;;5059324;28;20033;-64
2023/08/08 05:52:53;;;;;;;3.38;2.72;;;;;;;;;;5044847;28;20052;-62
2023/08/08 05:55:19;;;;;;;;;;;;;;;;;;5038745;28;20037;-64
2023/08/08 05:57:45;;;;;;;7.38;3.15;;;;;;;;;;5059979;28;20702;-62
2023/08/08 06:00:11;;;;;;;9.75;3.20;;;;;;;;;;5054653;28;20041;-62
2023/08/08 06:02:38;;;;;;;5.75;3.22;;;;;;;;;;5049483;28;20199;-62
2023/08/08 06:05:04;;;;;;;8.88;4.65;;;;;;;;;;5059539;28;20028;-62
2023/08/08 06:07:30;;;;;;;7.43;4.47;;;;;;;;;;5060571;28;20089;-62
2023/08/08 06:09:56;;;;;;;;;;;;;;;;;;5061700;28;20041;-61
2023/08/08 06:12:22;;;;;;;12.90;5.27;;;;;;;;;;5049683;28;20010;-60
2023/08/08 06:14:48;;;;;;;;;;;;;;;;;;5063910;28;20583;-63
2023/08/08 06:17:14;;;;;;;7.10;4.78;;;;;;;;;;5058077;28;19917;-63
2023/08/08 06:19:41;;;;;;;8.20;5.68;;;;;;;;;;5059455;28;20040;-62
2023/08/08 06:22:07;;;;;;;10.13;6.63;;;;;;;;;;5058687;28;20441;-62
2023/08/08 06:24:33;;;;;;;13.30;7.65;;;;;;;;;;5063153;28;20051;-61
2023/08/08 06:26:59;;;;;;;;;;;;;;;;;;5055928;28;20120;-60
2023/08/08 06:29:25;;;;;;;8.55;6.15;;;;;;;;;;5057458;28;20062;-63
2023/08/08 06:31:51;;;;;;;12.32;8.25;;;;;;;;;;5057478;28;20298;-62
2023/08/08 06:34:17;;;;;;;;;;;;;;;;;;5060685;28;20482;-64
2023/08/08 06:36:43;;;;;;;16.00;8.23;;;;;;;;;;5060045;28;19921;-61
2023/08/08 06:39:11;;;;;;;;;;;;;;;;;;5058420;28;20102;-60
2023/08/08 06:41:38;;;;;;;14.13;7.97;;;;;;;;;;5057253;28;20623;-62
2023/08/08 06:44:04;;;;;;;15.48;8.95;;;;;;;;;;5043865;28;20126;-60
2023/08/08 06:46:30;;;;;;;15.55;9.60;;;;;;;;;;5068499;28;21035;-59
2023/08/08 06:48:58;;;;;;;;;;;;;;;;;;5061337;28;20525;-63
2023/08/08 06:51:27;;;;;;;14.52;8.95;;;;;;;;;;5060243;28;19970;-63
2023/08/08 06:53:54;;;;;;;14.70;8.90;;;;;;;;;;5043545;28;20076;-65
2023/08/08 06:56:20;;;;;;;20.25;9.55;;;;;;;;;;5036104;28;20045;-64
2023/08/08 06:58:46;;;;;;;16.33;9.65;;;;;;;;;;5048217;28;20063;-62
2023/08/08 07:01:13;;;;;;;;;;;;;;;;;;5055725;28;20079;-60
2023/08/08 07:03:39;;;;;;;;;;;;;;;;;;5062753;28;20431;-62
2023/08/08 07:06:05;;;;;;;21.77;9.30;;;;;;;;;;5058440;28;19924;-61
2023/08/08 07:08:32;;;;;;;13.48;8.60;;;;;;;;;;5055540;28;20120;-64
2023/08/08 07:10:58;;;;;;;19.55;9.30;;;;;;;;;;5051439;28;20041;-62
2023/08/08 07:13:24;;;;;;;15.98;8.68;;;;;;;;;;5055603;28;20048;-62
2023/08/08 07:15:50;;;;;;;;;;;;;;;;;;5042278;28;20060;-62
2023/08/08 07:18:16;;;;;;;14.65;7.82;;;;;;;;;;5054799;28;20291;-62
2023/08/08 07:20:42;;;;;;;16.10;8.38;;;;;;;;;;5060877;28;20952;-62
2023/08/08 07:23:08;;;;;;;;;;;;;;;;;;5063893;28;20052;-64
2023/08/08 07:25:35;;;;;;;16.48;8.73;;;;;;;;;;5051808;28;19927;-63
2023/08/08 07:28:01;;;;;;;13.15;7.85;;;;;;;;;;5070340;28;20634;-64
2023/08/08 07:30:27;;;;;;;13.48;8.05;;;;;;;;;;5063450;28;20493;-63
2023/08/08 07:32:53;;;;;;;;;;;;;;;;;;5054995;28;20041;-62
2023/08/08 07:35:19;;;;;;;20.00;7.50;;;;;;;;;;5060448;28;20853;-61
2023/08/08 07:37:45;;;;;;;16.65;8.48;;;;;;;;;;5056205;28;20036;-63
2023/08/08 07:40:11;;;;;;;;;;;;;;;;;;5063622;28;20483;-64
2023/08/08 07:42:37;;;;;;;14.23;7.85;;;;;;;;;;5051997;28;19927;-64
2023/08/08 07:45:03;;;;;;;;;;;;;;;;;;5072630;28;20115;-64
2023/08/08 07:47:29;;;;;;;16.13;9.18;;;;;;;;;;5050730;28;19924;-63
2023/08/08 07:49:55;;;;;;;17.33;10.07;;;;;;;;;;5062917;28;20044;-63
2023/08/08 07:52:21;;;;;;;18.30;9.07;;;;;;;;;;5066714;28;20044;-63
2023/08/08 07:54:47;;;;;;;;;;;;;;;;;;5066613;28;20064;-64
2023/08/08 07:57:13;;;;;;;21.35;10.60;;;;;;;;;;5062884;28;19920;-64
2023/08/08 07:59:40;;;;;;;17.58;9.75;;;;;;;;;;5057736;28;20448;-64
2023/08/08 08:02:07;;;;;;;22.58;10.85;;;;;;;;;;5063361;28;20412;-63
2023/08/08 08:04:33;;;;;;;19.52;10.73;;;;;;;;;;5066113;28;20064;-63
2023/08/08 08:06:59;;;;;;;;;;;;;;;;;;5064876;28;20039;-64
2023/08/08 08:09:25;;;;;;;20.33;8.90;;;;;;;;;;5057114;28;20008;-62
2023/08/08 08:11:51;;;;;;;19.65;10.95;;;;;;;;;;5059160;28;20504;-63
2023/08/08 08:14:17;;;;;;;19.35;10.02;;;;;;;;;;5060047;28;20048;-64
2023/08/08 08:16:45;;;;;;;17.45;10.20;;;;;;;;;;5052557;28;20044;-65
2023/08/08 08:19:11;;;;;;;24.25;10.85;;;;;;;;;;5052852;28;20033;-64
2023/08/08 08:21:37;;;;;;;;;;;;;;;;;;5062595;28;20055;-64
2023/08/08 08:24:04;;;;;;;22.05;11.50;;;;;;;;;;5061123;28;19920;-63
2023/08/08 08:26:30;;;;;;;15.80;9.90;;;;;;;;;;5064309;28;20420;-63
2023/08/08 08:28:56;;;;;;;;;;;;;;;;;;5064223;28;20032;-63
2023/08/08 08:31:22;;;;;;;24.17;11.20;;;;;;;;;;5056693;28;19920;-63
2023/08/08 08:33:48;;;;;;;;;;;;;;;;;;5065663;28;20029;-61
2023/08/08 08:36:14;;;;;;;18.52;10.18;;;;;;;;;;5063582;28;19923;-62
2023/08/08 08:38:40;;;;;;;21.90;10.60;;;;;;;;;;5062501;28;20032;-63
2023/08/08 08:41:06;;;;;;;15.32;9.95;;;;;;;;;;5048669;28;20112;-63
2023/08/08 08:43:32;;;;;;;17.90;10.05;;;;;;;;;;5071300;28;20172;-64
2023/08/08 08:45:58;;;;;;;;;;;;;;;;;;5054652;28;20488;-63
2023/08/08 08:48:24;;;;;;;15.52;9.25;;;;;;;;;;5063405;28;19920;-63
2023/08/08 08:50:51;;;;;;;16.55;9.65;;;;;;;;;;5064521;28;20043;-64
2023/08/08 08:53:17;;;;;;;22.38;10.38;;;;;;;;;;5054999;28;20071;-62
2023/08/08 08:55:44;;;;;;;20.05;11.93;;;;;;;;;;5062534;28;20040;-64
2023/08/08 08:58:10;;;;;;;21.90;10.70;;;;;;;;;;5065440;28;20183;-62
2023/08/08 09:00:37;;;;;;;19.02;10.30;;;;;;;;;;5053994;28;20045;-63
2023/08/08 09:03:04;;;;;;;18.08;10.13;;;;;;;;;;5044816;28;20041;-62
2023/08/08 09:05:30;;;;;;;19.75;10.48;;;;;;;;;;5058513;28;20040;-64
2023/08/08 09:07:56;;;;;;;16.95;10.32;;;;;;;;;;5058842;28;20127;-62
2023/08/08 09:10:22;;;;;;;;;;;;;;;;;;5065604;28;21736;-63
2023/08/08 09:12:49;;;;;;;16.73;10.07;;;;;;;;;;5064148;28;19912;-64
2023/08/08 09:15:16;;;;;;;13.13;9.77;;;;;;;;;;5041242;28;20068;-62
2023/08/08 09:17:43;;;;;;;17.10;11.20;;;;;;;;;;5055510;28;20381;-62
2023/08/08 09:20:10;;;;;;;19.33;11.23;;;;;;;;;;5060003;28;20086;-63
2023/08/08 09:22:37;;;;;;;14.13;9.07;;;;;;;;;;5064115;28;20044;-64
2023/08/08 09:25:04;;;;;;;18.75;10.27;;;;;;;;;;5064765;28;20719;-64
2023/08/08 09:27:30;;;;;;;19.27;9.82;;;;;;;;;;5062452;28;20043;-62
2023/08/08 09:29:57;;;;;;;15.88;9.38;;;;;;;;;;5060887;28;20045;-65
2023/08/08 09:32:23;;;;;;;22.90;10.55;;;;;;;;;;5059842;28;20033;-64
2023/08/08 09:34:48;;;;;;;;;;;;;;;;;;5063380;28;20067;-64
2023/08/08 09:37:15;;;;;;;17.23;10.00;;;;;;;;;;5063725;28;19967;-64
2023/08/08 09:39:42;;;;;;;18.35;9.38;;;;;;;;;;5061645;28;20051;-65
2023/08/08 09:42:11;;;;;;;15.80;8.70;;;;;;;;;;5044421;28;20044;-63
2023/08/08 09:44:37;;;;;;;15.65;8.68;;;;;;;;;;5049014;28;20098;-63
2023/08/08 09:47:03;;;;;;;15.15;10.02;;;;;;;;;;5069223;28;20088;-64
2023/08/08 09:49:29;;;;;;;;;;;;;;;;;;5082882;28;20044;-62
2023/08/08 09:51:55;;;;;;;12.10;8.40;;;;;;;;;;5062350;28;19927;-62
2023/08/08 09:54:22;;;;;;;13.98;9.13;;;;;;;;;;5062902;28;20036;-64
2023/08/08 09:56:49;;;;;;;17.70;8.63;;;;;;;;;;5058586;28;20060;-63
2023/08/08 09:59:18;;;;;;;15.05;8.55;;;;;;;;;;5061195;28;20040;-63
2023/08/08 10:01:44;;;;;;;14.05;8.50;;;;;;;;;;5059015;28;20041;-62
2023/08/08 10:04:10;;;;;;;19.58;8.55;;;;;;;;;;5064193;28;20685;-62
2023/08/08 10:06:36;;;;;;;11.80;8.18;;;;;;;;;;5060299;28;20047;-61
2023/08/08 10:09:03;;;;;;;16.52;8.85;;;;;;;;;;5053949;28;20511;-62
2023/08/08 10:11:30;;;;;;;16.35;7.80;;;;;;;;;;5063520;28;20024;-62
2023/08/08 10:13:57;;;;;;;13.27;7.25;;;;;;;;;;5059527;28;20048;-62
2023/08/08 10:16:24;;;;;;;17.58;8.68;;;;;;;;;;5057332;28;20386;-62
2023/08/08 10:18:57;;;;;;;13.35;8.15;;;;;;;;;;5081072;28;20051;-61
2023/08/08 10:21:27;;;;;;;17.58;8.32;;;;;;;;;;5051110;28;20053;-61
2023/08/08 10:24:05;;;;;;;12.85;7.75;;;;;;;;;;5054254;28;20147;-59
2023/08/08 10:26:31;;;;;;;13.95;8.27;;;;;;;;;;5048782;28;20131;-58
2023/08/08 10:28:58;;;;;;;12.52;7.88;;;;;;;;;;5047023;28;20773;-59
2023/08/08 10:31:25;;;;;;;11.13;6.43;;;;;;;;;;5051788;28;20082;-59
2023/08/08 10:34:01;;;;;;;18.77;7.53;;;;;;;;;;5053172;28;20040;-57
2023/08/08 10:36:27;;;;;;;13.55;7.20;;;;;;;;;;5060804;28;20120;-61
2023/08/08 10:38:54;;;;;;;11.32;7.13;;;;;;;;;;5062805;28;20079;-60
2023/08/08 10:41:21;;;;;;;17.40;6.43;;;;;;;;;;5062857;28;20141;-62
2023/08/08 10:43:54;;;;;;;11.65;5.75;;;;;;;;;;5043506;28;20170;-62
2023/08/08 10:46:35;;;;;;;13.90;6.35;;;;;;;;;;5061753;28;20128;-61
2023/08/08 10:49:02;;;;;;;16.60;6.32;;;;;;;;;;5060155;28;20644;-61
2023/08/08 10:51:38;;;;;;;11.35;5.15;;;;;;;;;;5052858;28;20039;-61
2023/08/08 10:54:04;;;;;;;;;;;;;;;;;;5055399;28;20032;-61
2023/08/08 10:56:31;;;;;;;11.38;5.55;;;;;;;;;;5056099;28;20391;-60
2023/08/08 10:58:57;;;;;;;8.48;5.30;;;;;;;;;;5050690;28;20107;-61
2023/08/08 11:01:23;;;;;;;;;;;;;;;;;;5047987;28;20394;-61
2023/08/08 11:03:50;;;;;;;12.15;5.03;;;;;;;;;;5052447;28;20662;-59
2023/08/08 11:06:17;;;;;;;13.93;5.25;;;;;;;;;;5059558;28;20471;-60
2023/08/08 11:08:43;;;;;;;17.20;4.80;;;;;;;;;;5062824;28;20119;-58
2023/08/08 11:11:09;;;;;;;8.18;4.03;;;;;;;;;;5060438;28;20040;-61
2023/08/08 11:13:35;;;;;;;7.38;4.40;;;;;;;;;;5049259;28;20086;-61
2023/08/08 11:16:01;;;;;;;;;;;;;;;;;;5050971;28;20093;-61
2023/08/08 11:18:28;;;;;;;10.30;3.95;;;;;;;;;;5056852;28;19920;-61
2023/08/08 11:20:54;;;;;;;7.85;4.32;;;;;;;;;;5059582;28;20037;-63
2023/08/08 11:23:20;;;;;;;7.28;3.22;;;;;;;;;;5058847;28;20044;-63
2023/08/08 11:25:46;;;;;;;;;;;;;;;;;;5052208;28;20033;-63
2023/08/08 11:28:13;;;;;;;11.23;3.97;;;;;;;;;;5056534;28;20005;-62
2023/08/08 11:30:43;;;;;;;9.88;3.78;;;;;;;;;;5051125;28;20120;-63
2023/08/08 11:33:10;;;;;;;7.97;3.30;;;;;;;;;;5051494;28;20119;-63
2023/08/08 11:35:37;;;;;;;13.32;4.05;;;;;;;;;;5052471;28;20223;-62
2023/08/08 11:38:04;;;;;;;9.82;4.15;;;;;;;;;;5062047;28;20044;-60
2023/08/08 11:40:31;;;;;;;7.57;3.50;;;;;;;;;;5063872;28;20483;-62
2023/08/08 11:42:57;;;;;;;7.53;3.35;;;;;;;;;;5052774;28;21013;-62
2023/08/08 11:45:24;;;;;;;7.43;3.22;;;;;;;;;;5061951;28;20044;-63
2023/08/08 11:47:51;;;;;;;13.43;3.40;;;;;;;;;;5056528;28;20847;-63
2023/08/08 11:50:19;;;;;;;5.75;3.13;;;;;;;;;;5062740;28;20051;-62
2023/08/08 11:52:46;;;;;;;9.43;3.97;;;;;;;;;;5062887;28;20032;-60
2023/08/08 11:55:13;;;;;;;8.65;2.40;;;;;;;;;;5063118;28;20045;-62
2023/08/08 11:57:42;;;;;;;9.55;3.45;;;;;;;;;;5055108;28;20544;-60
2023/08/08 12:00:11;;;;;;;5.55;2.78;;;;;;;;;;5062258;28;20032;-63
2023/08/08 12:02:39;;;;;;;7.38;3.28;;;;;;;;;;5062304;28;20062;-63
2023/08/08 12:05:08;;;;;;;8.73;2.90;;;;;;;;;;5060412;28;20033;-66
2023/08/08 12:07:35;;;;;;;6.70;2.90;;;;;;;;;;5064048;28;20101;-62
2023/08/08 12:10:03;;;;;;;7.03;2.55;;;;;;;;;;5077430;28;20073;-61
2023/08/08 12:12:36;;;;;;;8.07;2.70;;;;;;;;;;5065847;28;20037;-62
2023/08/08 12:15:09;;;;;;;5.50;2.53;;;;;;;;;;5059075;28;20043;-63
2023/08/08 12:17:36;;;;;;;14.07;2.75;;;;;;;;;;5074042;28;20389;-63
2023/08/08 12:20:06;;;;;;;8.57;2.83;;;;;;;;;;5065131;28;20082;-61
2023/08/08 12:22:32;;;;;;;11.13;3.17;;;;;;;;;;5062364;28;20040;-59
2023/08/08 12:24:59;;;;;;;5.13;2.80;;;;;;;;;;5060506;28;20036;-61
2023/08/08 12:27:25;;;;;;;6.65;2.75;;;;;;;;;;5060011;28;20151;-61
2023/08/08 12:29:51;;;;;;;7.43;2.72;;;;;;;;;;5065737;28;20071;-62
2023/08/08 12:32:19;;;;;;;6.45;2.50;;;;;;;;;;5065085;28;20068;-61
2023/08/08 12:34:45;;;;;;;9.02;2.78;;;;;;;;;;5060632;28;20033;-61
2023/08/08 12:37:11;;;;;;;;;;;;;;;;;;5067354;28;20090;-61
2023/08/08 12:39:37;;;;;;;10.20;3.03;;;;;;;;;;5064995;28;19997;-62
2023/08/08 12:42:03;;;;;;;;;;;;;;;;;;5058644;28;20040;-61
2023/08/08 12:44:29;;;;;;;7.18;2.60;;;;;;;;;;5054541;28;20020;-61
2023/08/08 12:46:56;;;;;;;5.65;2.33;;;;;;;;;;5074584;28;20504;-62
2023/08/08 12:49:21;;;;;;;5.38;2.60;;;;;;;;;;5059259;28;20075;-61
2023/08/08 12:51:47;;;;;;;;;;;;;;;;;;5064395;28;20036;-62
2023/08/08 12:54:13;;;;;;;5.03;2.50;;;;;;;;;;5065627;28;19927;-61
2023/08/08 12:56:39;;;;;;;6.57;2.67;;;;;;;;;;5063935;28;20041;-62
2023/08/08 12:59:05;;;;;;;;;;;;;;;;;;5060577;28;20897;-61
2023/08/08 13:01:32;;;;;;;8.55;3.10;;;;;;;;;;5064670;28;19920;-62
2023/08/08 13:03:58;;;;;;;6.15;2.70;;;;;;;;;;5064752;28;20041;-61
2023/08/08 13:06:24;;;;;;;;;;;;;;;;;;5066090;28;20126;-60
2023/08/08 13:08:50;;;;;;;9.82;3.13;;;;;;;;;;5064321;28;19928;-61
2023/08/08 13:11:16;;;;;;;;;;;;;;;;;;5060065;28;20047;-63
2023/08/08 13:13:42;;;;;;;8.85;2.60;;;;;;;;;;5049892;28;19982;-63
2023/08/08 13:16:08;;;;;;;;;;;;;;;;;;5071049;28;20036;-63
2023/08/08 13:18:34;;;;;;;8.90;2.92;;;;;;;;;;5065739;28;19920;-63
2023/08/08 13:21:00;;;;;;;5.55;2.63;;;;;;;;;;5053597;28;20060;-62
2023/08/08 13:23:26;;;;;;;;;;;;;;;;;;5060388;28;20072;-60
2023/08/08 13:25:52;;;;;;;7.70;2.80;;;;;;;;;;5065163;28;20397;-63
2023/08/08 13:28:18;;;;;;;7.80;2.60;;;;;;;;;;5062221;28;20040;-62
2023/08/08 13:30:44;;;;;;;;;;;;;;;;;;5055678;28;20029;-60
2023/08/08 13:33:10;;;;;;;6.30;2.83;;;;;;;;;;5045677;28;20343;-63
2023/08/08 13:35:36;;;;;;;;;;;;;;;;;;5062346;28;20040;-61
2023/08/08 13:38:02;;;;;;;6.70;3.13;;;;;;;;;;5064616;28;19942;-62
2023/08/08 13:40:28;;;;;;;9.95;2.40;;;;;;;;;;5065301;28;20105;-60
2023/08/08 13:42:54;;;;;;;;;;;;;;;;;;5056336;28;20037;-60
2023/08/08 13:45:20;;;;;;;10.25;2.92;;;;;;;;;;5055848;28;20717;-58
2023/08/08 13:47:47;;;;;;;6.15;2.85;;;;;;;;;;5062770;28;20047;-63
2023/08/08 13:50:16;;;;;;;8.07;3.42;;;;;;;;;;5054011;28;20037;-62
2023/08/08 13:52:42;;;;;;;7.20;4.00;;;;;;;;;;5044774;28;20118;-62
2023/08/08 13:55:09;;;;;;;10.23;4.63;;;;;;;;;;5057955;28;20071;-61
2023/08/08 13:57:36;;;;;;;9.35;3.47;;;;;;;;;;5064299;28;20048;-61
2023/08/08 14:00:03;;;;;;;14.15;4.40;;;;;;;;;;5062933;28;20114;-63
2023/08/08 14:02:29;;;;;;;6.43;2.97;;;;;;;;;;5077083;28;20062;-62
2023/08/08 14:04:55;;;;;;;8.90;3.53;;;;;;;;;;5069836;28;20115;-63
2023/08/08 14:07:21;;;;;;;7.45;4.00;;;;;;;;;;5055677;28;20045;-61
2023/08/08 14:09:48;;;;;;;12.07;3.75;;;;;;;;;;5060807;28;20033;-62
2023/08/08 14:12:13;;;;;;;;;;;;;;;;;;5063888;28;20028;-62
2023/08/08 14:14:40;;;;;;;11.35;3.63;;;;;;;;;;5058845;28;19917;-63
2023/08/08 14:17:06;;;;;;;6.55;3.35;;;;;;;;;;5066865;28;20044;-62
2023/08/08 14:19:32;;;;;;;12.82;3.65;;;;;;;;;;5073435;28;20110;-61
2023/08/08 14:21:58;;;;;;;;;;;;;;;;;;5048783;28;20044;-63
2023/08/08 14:24:24;;;;;;;12.80;3.70;;;;;;;;;;5048198;28;19919;-60
2023/08/08 14:26:50;;;;;;;;;;;;;;;;;;5056595;28;20051;-62
2023/08/08 14:29:16;;;;;;;8.90;3.42;;;;;;;;;;5063662;28;20406;-64
2023/08/08 14:31:43;;;;;;;4.88;2.83;;;;;;;;;;5062863;28;20032;-59
2023/08/08 14:34:09;;;;;;;;;;;;;;;;;;5061844;28;20051;-63
2023/08/08 14:36:35;;;;;;;7.05;2.75;;;;;;;;;;5052092;28;19939;-63
2023/08/08 14:39:00;;;;;;;;;;;;;;;;;;5063286;28;20133;-62
2023/08/08 14:41:27;;;;;;;11.27;3.05;;;;;;;;;;5056278;28;20022;-64
2023/08/08 14:43:53;;;;;;;7.88;2.55;;;;;;;;;;5053184;28;20072;-61
2023/08/08 14:46:19;;;;;;;5.38;2.50;;;;;;;;;;5069015;28;21147;-62
2023/08/08 14:48:45;;;;;;;;;;;;;;;;;;5063344;28;20032;-62
2023/08/08 14:51:12;;;;;;;8.65;2.08;;;;;;;;;;5055335;28;19923;-64
2023/08/08 14:53:38;;;;;;;3.33;1.65;;;;;;;;;;5042249;28;20500;-63
2023/08/08 14:56:04;;;;;;;;;;;;;;;;;;5048907;28;20029;-63
2023/08/08 14:58:30;;;;;;;9.18;2.30;;;;;;;;;;5056605;28;19934;-63